createdAt,value
2022-11-12T00:01:26.850Z,4.10
2022-11-12T00:04:12.123Z,4.93
2022-11-12T00:06:57.395Z,5.03
2022-11-12T00:09:42.549Z,4.27
2022-11-12T00:12:27.727Z,3.73
2022-11-12T00:15:13.113Z,3.30
2022-11-12T00:17:58.271Z,3.87
2022-11-12T00:20:44.669Z,3.70
2022-11-12T00:23:29.887Z,3.23
2022-11-12T00:26:14.775Z,2.90
2022-11-12T00:29:00.027Z,2.93
2022-11-12T00:31:45.201Z,4.00
2022-11-12T00:34:31.297Z,2.80
2022-11-12T00:37:16.911Z,2.80
2022-11-12T00:40:02.043Z,3.07
2022-11-12T00:42:47.247Z,3.20
2022-11-12T00:45:32.186Z,3.00
2022-11-12T00:48:17.519Z,2.40
2022-11-12T00:51:04.796Z,4.00
2022-11-12T00:53:50.678Z,2.60
2022-11-12T00:56:35.852Z,3.43
2022-11-12T00:59:21.023Z,2.30
2022-11-12T01:02:06.380Z,2.70
2022-11-12T01:04:51.601Z,5.77
2022-11-12T01:07:36.909Z,4.50
2022-11-12T01:10:22.328Z,3.13
2022-11-12T01:13:07.519Z,3.13
2022-11-12T01:15:52.852Z,3.10
2022-11-12T01:18:38.096Z,3.17
2022-11-12T01:21:28.623Z,3.83
2022-11-12T01:24:14.007Z,4.60
2022-11-12T01:26:59.154Z,4.17
2022-11-12T01:29:44.414Z,3.40
2022-11-12T01:32:29.605Z,3.30
2022-11-12T01:35:14.925Z,4.00
2022-11-12T01:38:00.210Z,2.50
2022-11-12T01:40:45.423Z,2.97
2022-11-12T01:43:30.790Z,5.00
2022-11-12T01:46:28.781Z,5.13
2022-11-12T01:49:23.555Z,5.67
2022-11-12T01:52:17.120Z,3.60
2022-11-12T01:55:07.073Z,3.40
2022-11-12T01:58:08.108Z,4.03
2022-11-12T02:00:53.331Z,4.37
2022-11-12T02:03:38.481Z,5.13
2022-11-12T02:06:24.592Z,3.83
2022-11-12T02:09:10.072Z,3.63
2022-11-12T02:11:55.314Z,3.30
2022-11-12T02:14:40.855Z,3.80
2022-11-12T02:17:25.829Z,2.33
2022-11-12T02:20:12.888Z,4.53
2022-11-12T02:22:57.755Z,3.60
2022-11-12T02:25:43.004Z,2.77
2022-11-12T02:28:31.504Z,2.70
2022-11-12T02:31:16.757Z,3.97
2022-11-12T02:34:02.894Z,2.37
2022-11-12T02:36:47.955Z,4.00
2022-11-12T02:39:34.002Z,5.00
2022-11-12T02:42:19.259Z,2.87
2022-11-12T02:45:05.872Z,2.77
2022-11-12T02:47:50.904Z,2.30
2022-11-12T02:50:35.957Z,3.40
2022-11-12T02:53:21.266Z,4.00
2022-11-12T02:56:06.928Z,2.87
2022-11-12T02:58:51.867Z,2.80
2022-11-12T03:01:37.010Z,2.90
2022-11-12T03:04:22.233Z,3.00
2022-11-12T03:07:07.355Z,3.30
2022-11-12T03:09:52.586Z,3.27
2022-11-12T03:12:37.732Z,3.63
2022-11-12T03:15:23.305Z,2.13
2022-11-12T03:18:08.573Z,4.33
2022-11-12T03:20:54.127Z,3.93
2022-11-12T03:23:39.386Z,3.77
2022-11-12T03:26:24.680Z,2.37
2022-11-12T03:29:10.087Z,2.03
2022-11-12T03:31:55.619Z,2.03
2022-11-12T03:34:40.530Z,2.93
2022-11-12T03:37:25.729Z,3.47
2022-11-12T03:40:11.354Z,2.87
2022-11-12T03:42:57.162Z,1.80
2022-11-12T03:45:42.071Z,3.13
2022-11-12T03:48:27.752Z,2.30
2022-11-12T03:51:16.356Z,2.50
2022-11-12T03:54:01.579Z,4.27
2022-11-12T03:56:46.804Z,2.80
2022-11-12T03:59:32.060Z,2.60
2022-11-12T04:02:16.952Z,2.33
2022-11-12T04:05:20.729Z,1.80
2022-11-12T04:08:36.511Z,3.93
2022-11-12T04:11:21.782Z,1.40
2022-11-12T04:14:07.039Z,4.03
2022-11-12T04:17:10.982Z,2.20
2022-11-12T04:20:14.881Z,1.67
2022-11-12T04:23:00.028Z,3.83
2022-11-12T04:26:04.783Z,3.10
2022-11-12T04:29:08.640Z,2.47
2022-11-12T04:31:54.464Z,2.60
2022-11-12T04:34:39.683Z,2.00
2022-11-12T04:37:28.385Z,2.47
2022-11-12T04:40:33.893Z,2.70
2022-11-12T04:43:37.607Z,1.70
2022-11-12T04:46:22.818Z,1.57
2022-11-12T04:49:08.140Z,2.83
2022-11-12T04:52:04.997Z,3.30
2022-11-12T04:54:50.888Z,1.97
2022-11-12T04:57:36.330Z,3.60
2022-11-12T05:00:21.604Z,2.00
2022-11-12T05:03:06.886Z,1.60
2022-11-12T05:05:52.139Z,1.23
2022-11-12T05:08:37.541Z,1.97
2022-11-12T05:11:22.433Z,2.00
2022-11-12T05:14:07.623Z,2.37
2022-11-12T05:16:52.776Z,3.10
2022-11-12T05:19:38.100Z,2.47
2022-11-12T05:22:42.609Z,2.37
2022-11-12T05:25:28.155Z,2.17
2022-11-12T05:28:13.511Z,1.63
2022-11-12T05:30:58.604Z,3.10
2022-11-12T05:33:43.879Z,4.33
2022-11-12T05:36:28.968Z,3.27
2022-11-12T05:39:14.133Z,2.27
2022-11-12T05:42:12.488Z,2.57
2022-11-12T05:44:58.144Z,1.93
2022-11-12T05:47:43.765Z,2.97
2022-11-12T05:50:34.993Z,1.80
2022-11-12T05:53:25.689Z,1.90
2022-11-12T05:56:11.556Z,1.53
2022-11-12T05:58:57.585Z,2.33
2022-11-12T06:01:45.297Z,2.70
2022-11-12T06:04:30.343Z,2.63
2022-11-12T06:07:15.692Z,2.20
2022-11-12T06:10:00.791Z,2.40
2022-11-12T06:12:46.122Z,2.30
2022-11-12T06:15:36.502Z,1.80
2022-11-12T06:18:25.521Z,5.10
2022-11-12T06:21:24.203Z,1.93
2022-11-12T06:24:09.549Z,2.43
2022-11-12T06:26:54.401Z,3.53
2022-11-12T06:29:39.663Z,2.47
2022-11-12T06:32:25.511Z,2.23
2022-11-12T06:35:10.806Z,2.30
2022-11-12T06:37:56.122Z,3.20
2022-11-12T06:40:41.952Z,3.83
2022-11-12T06:43:29.567Z,4.80
2022-11-12T06:46:16.426Z,5.43
2022-11-12T06:49:01.391Z,9.00
2022-11-12T06:51:46.883Z,11.00
2022-11-12T06:54:32.023Z,8.53
2022-11-12T06:57:17.460Z,12.67
2022-11-12T07:00:02.614Z,9.73
2022-11-12T07:02:47.779Z,10.40
2022-11-12T07:05:36.188Z,14.27
2022-11-12T07:08:21.412Z,10.67
2022-11-12T07:11:07.712Z,12.03
2022-11-12T07:13:52.730Z,15.57
2022-11-12T07:16:37.848Z,19.60
2022-11-12T07:19:23.114Z,17.13
2022-11-12T07:22:08.361Z,16.10
2022-11-12T07:24:53.612Z,14.50
2022-11-12T07:27:38.808Z,11.43
2022-11-12T07:30:24.007Z,10.07
2022-11-12T07:33:09.233Z,9.43
2022-11-12T07:36:01.834Z,7.97
2022-11-12T07:38:50.389Z,7.27
2022-11-12T07:41:35.677Z,8.27
2022-11-12T07:44:20.996Z,7.73
2022-11-12T07:47:06.381Z,7.77
2022-11-12T07:49:51.625Z,6.50
2022-11-12T07:52:36.875Z,8.50
2022-11-12T07:55:22.252Z,9.37
2022-11-12T07:58:07.393Z,8.47
2022-11-12T08:00:53.451Z,10.43
2022-11-12T08:03:38.402Z,10.67
2022-11-12T08:06:23.964Z,39.13
2022-11-12T08:09:09.067Z,21.03
2022-11-12T08:11:54.445Z,19.33
2022-11-12T08:14:40.023Z,17.80
2022-11-12T08:17:24.922Z,17.50
2022-11-12T08:20:10.329Z,15.00
2022-11-12T08:22:59.927Z,14.13
2022-11-12T08:25:45.803Z,14.37
2022-11-12T08:28:32.827Z,13.83
2022-11-12T08:31:21.172Z,15.20
2022-11-12T08:34:12.533Z,12.43
2022-11-12T08:36:57.987Z,14.00
2022-11-12T08:39:43.216Z,12.83
2022-11-12T08:42:28.413Z,14.77
2022-11-12T08:45:13.671Z,10.33
2022-11-12T08:48:00.341Z,11.50
2022-11-12T08:50:45.813Z,9.50
2022-11-12T08:53:31.328Z,9.13
2022-11-12T08:56:16.570Z,7.70
2022-11-12T08:59:06.226Z,8.03
2022-11-12T09:01:52.573Z,8.17
2022-11-12T09:04:37.914Z,9.85
2022-11-12T09:07:48.153Z,8.43
2022-11-12T09:10:28.858Z,8.83
2022-11-12T09:13:14.678Z,9.13
2022-11-12T09:16:05.108Z,7.83
2022-11-12T09:18:50.382Z,9.23
2022-11-12T09:21:35.673Z,8.85
2022-11-12T09:24:20.914Z,8.45
2022-11-12T09:27:06.021Z,18.13
2022-11-12T09:29:51.359Z,9.43
2022-11-12T09:32:36.547Z,12.18
2022-11-12T09:35:22.530Z,11.70
2022-11-12T09:38:07.551Z,9.82
2022-11-12T09:40:52.796Z,9.20
2022-11-12T09:43:44.474Z,8.43
2022-11-12T09:46:54.240Z,11.25
2022-11-12T09:49:47.920Z,8.48
2022-11-12T09:52:33.271Z,10.32
2022-11-12T09:55:31.624Z,9.05
2022-11-12T09:58:19.316Z,7.55
2022-11-12T10:01:15.204Z,6.88
2022-11-12T10:04:32.771Z,6.78
2022-11-12T10:07:21.154Z,6.05
2022-11-12T10:10:15.023Z,7.75
2022-11-12T10:13:25.230Z,6.40
2022-11-12T10:16:43.162Z,5.95
2022-11-12T10:19:52.504Z,5.40
2022-11-12T10:22:49.510Z,6.30
2022-11-12T10:25:36.083Z,4.72
2022-11-12T10:28:21.295Z,4.18
2022-11-12T10:31:19.321Z,4.55
2022-11-12T10:34:13.668Z,4.65
2022-11-12T10:37:06.414Z,4.95
2022-11-12T10:39:52.419Z,3.67
2022-11-12T10:42:56.732Z,4.80
2022-11-12T10:45:42.719Z,4.03
2022-11-12T10:48:32.369Z,3.47
2022-11-12T10:51:39.167Z,3.55
2022-11-12T10:54:27.330Z,2.88
2022-11-12T10:57:18.440Z,3.25
2022-11-12T11:00:18.937Z,4.00
2022-11-12T11:03:15.477Z,2.17
2022-11-12T11:06:06.553Z,2.42
2022-11-12T11:08:54.108Z,4.57
2022-11-12T11:11:50.111Z,2.40
2022-11-12T11:14:35.593Z,3.45
2022-11-12T11:17:20.969Z,5.03
2022-11-12T11:20:31.928Z,2.38
2022-11-12T11:23:25.911Z,2.20
2022-11-12T11:26:38.478Z,2.60
2022-11-12T11:29:46.686Z,2.45
2022-11-12T11:33:01.312Z,2.60
2022-11-12T11:35:52.856Z,2.70
2022-11-12T11:38:39.852Z,2.55
2022-11-12T11:41:45.505Z,4.35
2022-11-12T11:44:52.149Z,3.42
2022-11-12T11:48:02.252Z,6.97
2022-11-12T11:51:25.880Z,5.55
2022-11-12T11:54:30.377Z,3.80
2022-11-12T11:57:22.715Z,3.05
2022-11-12T12:00:15.600Z,3.92
2022-11-12T12:03:10.243Z,4.25
2022-11-12T12:06:07.959Z,3.78
2022-11-12T12:08:56.571Z,5.75
2022-11-12T12:12:02.570Z,6.35
2022-11-12T12:15:09.089Z,3.42
2022-11-12T12:18:02.319Z,6.22
2022-11-12T12:21:03.245Z,3.25
2022-11-12T12:24:07.246Z,6.25
2022-11-12T12:26:57.676Z,5.60
2022-11-12T12:29:53.732Z,6.95
2022-11-12T12:32:56.523Z,4.63
2022-11-12T12:35:53.518Z,3.80
2022-11-12T12:38:48.583Z,5.68
2022-11-12T12:41:49.113Z,9.95
2022-11-12T12:45:04.972Z,9.05
2022-11-12T12:47:52.048Z,3.83
2022-11-12T12:50:39.931Z,4.82
2022-11-12T12:53:28.157Z,3.95
2022-11-12T12:56:13.404Z,3.42
2022-11-12T12:59:03.695Z,2.83
2022-11-12T13:02:01.202Z,1.70
2022-11-12T13:04:54.788Z,1.92
2022-11-12T13:07:45.665Z,2.25
2022-11-12T13:10:36.656Z,2.17
2022-11-12T13:13:21.556Z,1.80
2022-11-12T13:16:07.606Z,1.90
2022-11-12T13:18:52.700Z,2.55
2022-11-12T13:21:37.874Z,2.63
2022-11-12T13:25:01.480Z,3.63
2022-11-12T13:27:47.081Z,4.32
2022-11-12T13:30:32.167Z,5.53
2022-11-12T13:33:31.687Z,2.78
2022-11-12T13:36:25.080Z,2.50
2022-11-12T13:39:19.610Z,6.10
2022-11-12T13:42:36.962Z,6.75
2022-11-12T13:45:26.183Z,4.18
2022-11-12T13:48:21.811Z,10.20
2022-11-12T13:51:15.201Z,6.03
2022-11-12T13:54:01.340Z,6.03
2022-11-12T13:56:46.285Z,4.97
2022-11-12T13:59:31.587Z,5.82
2022-11-12T14:02:25.462Z,7.57
2022-11-12T14:05:23.374Z,8.88
2022-11-12T14:08:33.307Z,5.72
2022-11-12T14:11:21.519Z,4.05
2022-11-12T14:14:28.058Z,3.47
2022-11-12T14:17:29.375Z,3.17
2022-11-12T14:20:30.548Z,28.42
2022-11-12T14:23:25.084Z,12.10
2022-11-12T14:26:12.598Z,12.88
2022-11-12T14:28:57.629Z,4.53
2022-11-12T14:31:43.202Z,5.05
2022-11-12T14:34:34.888Z,4.47
2022-11-12T14:37:32.274Z,5.47
2022-11-12T14:40:18.776Z,4.43
2022-11-12T14:43:03.790Z,3.90
2022-11-12T14:45:54.976Z,4.70
2022-11-12T14:49:12.260Z,4.70
2022-11-12T14:52:06.227Z,4.82
2022-11-12T14:54:56.506Z,4.72
2022-11-12T14:57:41.991Z,4.93
2022-11-12T15:00:30.022Z,4.65
2022-11-12T15:03:20.729Z,6.57
2022-11-12T15:06:06.020Z,5.07
2022-11-12T15:08:59.029Z,5.43
2022-11-12T15:11:47.538Z,4.78
2022-11-12T15:14:34.156Z,4.78
2022-11-12T15:17:33.214Z,3.92
2022-11-12T15:20:19.595Z,3.88
2022-11-12T15:23:05.189Z,3.05
2022-11-12T15:26:01.376Z,4.70
2022-11-12T15:28:59.962Z,3.35
2022-11-12T15:31:49.882Z,3.47
2022-11-12T15:34:40.764Z,3.22
2022-11-12T15:37:29.498Z,3.42
2022-11-12T15:40:20.354Z,3.28
2022-11-12T15:43:13.879Z,3.03
2022-11-12T15:45:59.373Z,2.40
2022-11-12T15:48:44.430Z,2.90
2022-11-12T15:51:29.501Z,2.92
2022-11-12T15:54:14.651Z,3.00
2022-11-12T15:56:59.669Z,4.03
2022-11-12T15:59:46.196Z,3.88
2022-11-12T16:02:31.916Z,2.45
2022-11-12T16:05:18.591Z,3.20
2022-11-12T16:08:04.324Z,4.43
2022-11-12T16:10:50.207Z,4.10
2022-11-12T16:13:36.387Z,5.83
2022-11-12T16:16:21.487Z,4.83
2022-11-12T16:19:13.882Z,4.07
2022-11-12T16:21:59.290Z,6.03
2022-11-12T16:24:44.574Z,6.40
2022-11-12T16:27:30.235Z,6.73
2022-11-12T16:30:15.255Z,3.57
2022-11-12T16:33:01.626Z,4.27
2022-11-12T16:35:46.921Z,3.27
2022-11-12T16:38:32.087Z,3.37
2022-11-12T16:41:17.511Z,3.67
2022-11-12T16:44:02.379Z,3.70
2022-11-12T16:46:47.443Z,4.30
2022-11-12T16:49:38.286Z,4.53
2022-11-12T16:52:23.792Z,3.60
2022-11-12T16:55:10.084Z,3.33
2022-11-12T16:57:54.890Z,3.60
2022-11-12T17:00:44.130Z,3.40
2022-11-12T17:03:29.785Z,4.83
2022-11-12T17:06:15.008Z,4.70
2022-11-12T17:09:00.288Z,4.17
2022-11-12T17:11:45.602Z,3.90
2022-11-12T17:14:30.991Z,4.50
2022-11-12T17:17:16.500Z,5.20
2022-11-12T17:20:01.932Z,3.13
2022-11-12T17:22:47.305Z,4.27
2022-11-12T17:25:32.267Z,3.80
2022-11-12T17:28:17.456Z,4.63
2022-11-12T17:31:12.900Z,3.03
2022-11-12T17:33:58.021Z,3.20
2022-11-12T17:36:44.143Z,3.77
2022-11-12T17:39:29.286Z,4.33
2022-11-12T17:42:14.604Z,3.10
2022-11-12T17:44:59.594Z,3.50
2022-11-12T17:47:44.994Z,3.93
2022-11-12T17:50:29.839Z,3.70
2022-11-12T17:53:15.537Z,3.50
2022-11-12T17:56:01.592Z,4.13
2022-11-12T17:58:47.296Z,5.30
2022-11-12T18:01:34.538Z,4.77
2022-11-12T18:04:22.450Z,5.37
2022-11-12T18:07:08.735Z,4.43
2022-11-12T18:09:54.559Z,4.73
2022-11-12T18:12:39.769Z,4.77
2022-11-12T18:15:25.296Z,5.77
2022-11-12T18:18:10.331Z,5.93
2022-11-12T18:20:56.070Z,5.50
2022-11-12T18:23:44.538Z,6.43
2022-11-12T18:26:29.558Z,5.67
2022-11-12T18:29:14.709Z,6.10
2022-11-12T18:31:59.982Z,5.37
2022-11-12T18:34:45.343Z,6.53
2022-11-12T18:37:30.674Z,6.57
2022-11-12T18:40:16.639Z,6.60
2022-11-12T18:43:01.818Z,7.00
2022-11-12T18:45:54.195Z,6.80
2022-11-12T18:48:40.433Z,6.30
2022-11-12T18:51:25.388Z,5.90
2022-11-12T18:54:10.759Z,9.27
2022-11-12T18:56:56.052Z,8.10
2022-11-12T18:59:41.299Z,7.93
2022-11-12T19:02:26.627Z,7.00
2022-11-12T19:05:11.828Z,7.83
2022-11-12T19:07:57.069Z,7.30
2022-11-12T19:10:42.220Z,7.90
2022-11-12T19:13:27.940Z,9.17
2022-11-12T19:16:17.213Z,8.43
2022-11-12T19:19:02.220Z,8.57
2022-11-12T19:21:48.837Z,8.53
2022-11-12T19:24:33.981Z,9.47
2022-11-12T19:27:19.114Z,8.53
2022-11-12T19:30:05.999Z,7.40
2022-11-12T19:32:51.135Z,7.97
2022-11-12T19:35:38.971Z,7.37
2022-11-12T19:38:24.352Z,7.37
2022-11-12T19:41:17.712Z,7.03
2022-11-12T19:44:04.376Z,7.13
2022-11-12T19:46:49.618Z,6.93
2022-11-12T19:49:34.887Z,6.07
2022-11-12T19:52:19.999Z,7.50
2022-11-12T19:55:05.988Z,7.83
2022-11-12T19:57:52.029Z,7.83
2022-11-12T20:00:37.410Z,6.87
2022-11-12T20:03:25.096Z,7.30
2022-11-12T20:06:16.772Z,7.57
2022-11-12T20:09:03.780Z,8.37
2022-11-12T20:11:50.646Z,7.03
2022-11-12T20:14:36.062Z,7.63
2022-11-12T20:17:21.586Z,9.90
2022-11-12T20:20:09.014Z,6.97
2022-11-12T20:22:54.039Z,8.97
2022-11-12T20:25:39.205Z,9.47
2022-11-12T20:28:24.292Z,10.63
2022-11-12T20:31:12.555Z,11.67
2022-11-12T20:33:57.845Z,12.70
2022-11-12T20:36:43.086Z,12.57
2022-11-12T20:39:28.268Z,13.37
2022-11-12T20:42:13.619Z,13.40
2022-11-12T20:44:58.784Z,12.90
2022-11-12T20:47:43.999Z,13.97
2022-11-12T20:50:29.350Z,16.30
2022-11-12T20:53:14.348Z,14.60
2022-11-12T20:56:11.561Z,12.87
2022-11-12T20:58:58.125Z,14.20
2022-11-12T21:01:43.160Z,15.93
2022-11-12T21:04:28.072Z,12.90
2022-11-12T21:07:13.157Z,13.40
2022-11-12T21:09:58.273Z,13.83
2022-11-12T21:12:43.467Z,13.83
2022-11-12T21:15:28.851Z,12.10
2022-11-12T21:18:13.972Z,11.67
2022-11-12T21:21:08.841Z,13.73
2022-11-12T21:23:54.005Z,14.40
2022-11-12T21:26:39.617Z,12.30
2022-11-12T21:29:24.691Z,12.20
2022-11-12T21:32:10.072Z,12.10
2022-11-12T21:34:55.738Z,11.30
2022-11-12T21:37:40.913Z,11.67
2022-11-12T21:40:25.980Z,11.20
2022-11-12T21:43:11.874Z,10.97
2022-11-12T21:45:57.813Z,10.60
2022-11-12T21:48:43.715Z,10.33
2022-11-12T21:51:31.578Z,13.03
2022-11-12T21:54:16.804Z,10.97
2022-11-12T21:57:02.062Z,11.77
2022-11-12T21:59:47.872Z,13.07
2022-11-12T22:02:33.036Z,11.73
2022-11-12T22:05:18.411Z,10.53
2022-11-12T22:08:03.408Z,10.70
2022-11-12T22:10:48.665Z,11.93
2022-11-12T22:13:34.366Z,8.73
2022-11-12T22:16:21.610Z,8.97
2022-11-12T22:19:07.163Z,9.87
2022-11-12T22:21:52.477Z,12.33
2022-11-12T22:24:37.626Z,14.23
2022-11-12T22:27:23.699Z,10.73
2022-11-12T22:30:09.202Z,9.30
2022-11-12T22:32:54.613Z,9.33
2022-11-12T22:35:39.923Z,9.97
2022-11-12T22:38:25.223Z,9.53
2022-11-12T22:41:15.724Z,9.80
2022-11-12T22:44:02.572Z,9.87
2022-11-12T22:46:47.779Z,10.53
2022-11-12T22:49:33.175Z,11.27
2022-11-12T22:52:18.258Z,10.80
2022-11-12T22:55:04.634Z,10.67
2022-11-12T22:57:49.917Z,10.87
2022-11-12T23:00:35.174Z,9.57
2022-11-12T23:03:20.431Z,9.23
2022-11-12T23:06:06.460Z,10.73
2022-11-12T23:08:53.705Z,12.07
2022-11-12T23:11:38.955Z,11.40
2022-11-12T23:14:24.283Z,11.77
2022-11-12T23:17:09.718Z,10.93
2022-11-12T23:19:54.904Z,12.10
2022-11-12T23:22:40.272Z,12.27
2022-11-12T23:25:25.563Z,10.27
2022-11-12T23:28:10.782Z,12.23
2022-11-12T23:30:56.303Z,11.60
2022-11-12T23:33:49.357Z,10.33
2022-11-12T23:36:34.575Z,10.63
2022-11-12T23:39:19.656Z,10.23
2022-11-12T23:42:05.064Z,10.00
2022-11-12T23:44:50.332Z,9.80
2022-11-12T23:47:35.338Z,10.90
2022-11-12T23:50:20.568Z,9.50
2022-11-12T23:53:05.785Z,13.33
2022-11-12T23:55:51.188Z,10.13
2022-11-12T23:58:38.080Z,10.00
